sensor_id;sensor_type;location;lat;lon;timestamp;temperature;humidity
46055;DHT22;31788;6.954;-71.872;2022-08-19T00:01:57;29.80;96.80
46055;DHT22;31788;6.954;-71.872;2022-08-19T00:04:27;29.70;96.90
46055;DHT22;31788;6.954;-71.872;2022-08-19T00:06:54;29.70;97.00
46055;DHT22;31788;6.954;-71.872;2022-08-19T00:09:23;29.60;97.10
46055;DHT22;31788;6.954;-71.872;2022-08-19T00:11:50;29.60;96.90
46055;DHT22;31788;6.954;-71.872;2022-08-19T00:14:17;29.60;96.90
46055;DHT22;31788;6.954;-71.872;2022-08-19T00:16:46;29.50;97.00
46055;DHT22;31788;6.954;-71.872;2022-08-19T00:19:14;29.50;97.10
46055;DHT22;31788;6.954;-71.872;2022-08-19T00:21:41;29.40;97.00
46055;DHT22;31788;6.954;-71.872;2022-08-19T00:24:11;29.40;96.70
46055;DHT22;31788;6.954;-71.872;2022-08-19T00:26:39;29.40;96.90
46055;DHT22;31788;6.954;-71.872;2022-08-19T00:29:08;29.40;96.90
46055;DHT22;31788;6.954;-71.872;2022-08-19T00:31:34;29.30;96.80
46055;DHT22;31788;6.954;-71.872;2022-08-19T00:34:02;29.30;96.60
46055;DHT22;31788;6.954;-71.872;2022-08-19T00:36:29;29.40;96.70
46055;DHT22;31788;6.954;-71.872;2022-08-19T00:38:56;29.40;96.50
46055;DHT22;31788;6.954;-71.872;2022-08-19T00:41:24;29.40;96.30
46055;DHT22;31788;6.954;-71.872;2022-08-19T00:46:37;29.30;96.40
46055;DHT22;31788;6.954;-71.872;2022-08-19T00:49:15;29.30;96.40
46055;DHT22;31788;6.954;-71.872;2022-08-19T00:51:45;29.30;96.20
46055;DHT22;31788;6.954;-71.872;2022-08-19T00:54:14;29.30;96.30
46055;DHT22;31788;6.954;-71.872;2022-08-19T00:56:45;29.30;96.00
46055;DHT22;31788;6.954;-71.872;2022-08-19T00:59:12;29.20;96.00
46055;DHT22;31788;6.954;-71.872;2022-08-19T01:01:42;29.20;96.10
46055;DHT22;31788;6.954;-71.872;2022-08-19T01:04:09;29.20;96.10
46055;DHT22;31788;6.954;-71.872;2022-08-19T01:06:37;29.20;95.90
46055;DHT22;31788;6.954;-71.872;2022-08-19T01:09:07;29.10;95.90
46055;DHT22;31788;6.954;-71.872;2022-08-19T01:11:38;29.10;95.80
46055;DHT22;31788;6.954;-71.872;2022-08-19T01:14:07;29.10;96.00
46055;DHT22;31788;6.954;-71.872;2022-08-19T01:16:35;29.10;95.80
46055;DHT22;31788;6.954;-71.872;2022-08-19T01:19:12;29.10;95.70
46055;DHT22;31788;6.954;-71.872;2022-08-19T01:21:44;29.10;95.80
46055;DHT22;31788;6.954;-71.872;2022-08-19T01:24:13;29.00;95.80
46055;DHT22;31788;6.954;-71.872;2022-08-19T01:26:42;29.00;95.90
46055;DHT22;31788;6.954;-71.872;2022-08-19T01:29:09;28.90;95.80
46055;DHT22;31788;6.954;-71.872;2022-08-19T01:31:36;28.90;95.70
46055;DHT22;31788;6.954;-71.872;2022-08-19T01:34:05;29.00;95.70
46055;DHT22;31788;6.954;-71.872;2022-08-19T01:39:03;28.90;95.80
46055;DHT22;31788;6.954;-71.872;2022-08-19T01:41:30;28.90;95.50
46055;DHT22;31788;6.954;-71.872;2022-08-19T01:43:56;28.80;95.80
46055;DHT22;31788;6.954;-71.872;2022-08-19T01:46:23;28.80;95.80
46055;DHT22;31788;6.954;-71.872;2022-08-19T01:48:50;28.80;95.50
46055;DHT22;31788;6.954;-71.872;2022-08-19T01:51:17;28.70;95.60
46055;DHT22;31788;6.954;-71.872;2022-08-19T01:53:47;28.70;95.80
46055;DHT22;31788;6.954;-71.872;2022-08-19T01:56:15;28.70;95.70
46055;DHT22;31788;6.954;-71.872;2022-08-19T01:59:10;28.60;95.70
46055;DHT22;31788;6.954;-71.872;2022-08-19T02:01:34;28.60;95.50
46055;DHT22;31788;6.954;-71.872;2022-08-19T02:04:00;28.70;95.40
46055;DHT22;31788;6.954;-71.872;2022-08-19T02:06:28;28.60;95.60
46055;DHT22;31788;6.954;-71.872;2022-08-19T02:08:55;28.50;95.60
46055;DHT22;31788;6.954;-71.872;2022-08-19T02:11:24;28.50;95.80
46055;DHT22;31788;6.954;-71.872;2022-08-19T02:13:53;28.50;95.50
46055;DHT22;31788;6.954;-71.872;2022-08-19T02:16:20;28.50;95.80
46055;DHT22;31788;6.954;-71.872;2022-08-19T02:18:48;28.50;95.50
46055;DHT22;31788;6.954;-71.872;2022-08-19T02:21:19;28.60;95.50
46055;DHT22;31788;6.954;-71.872;2022-08-19T02:23:46;28.50;95.40
46055;DHT22;31788;6.954;-71.872;2022-08-19T02:26:13;28.50;95.30
46055;DHT22;31788;6.954;-71.872;2022-08-19T02:28:41;28.50;95.30
46055;DHT22;31788;6.954;-71.872;2022-08-19T02:31:14;28.50;95.40
46055;DHT22;31788;6.954;-71.872;2022-08-19T02:33:41;28.40;95.20
46055;DHT22;31788;6.954;-71.872;2022-08-19T02:36:09;28.40;95.80
46055;DHT22;31788;6.954;-71.872;2022-08-19T02:38:36;28.30;95.50
46055;DHT22;31788;6.954;-71.872;2022-08-19T02:41:16;28.30;95.30
46055;DHT22;31788;6.954;-71.872;2022-08-19T02:43:43;28.30;95.20
46055;DHT22;31788;6.954;-71.872;2022-08-19T02:48:48;28.40;95.40
46055;DHT22;31788;6.954;-71.872;2022-08-19T02:51:23;28.30;95.10
46055;DHT22;31788;6.954;-71.872;2022-08-19T02:53:52;28.30;94.80
46055;DHT22;31788;6.954;-71.872;2022-08-19T02:56:21;28.30;94.60
46055;DHT22;31788;6.954;-71.872;2022-08-19T02:58:48;28.30;94.50
46055;DHT22;31788;6.954;-71.872;2022-08-19T03:01:30;28.30;94.50
46055;DHT22;31788;6.954;-71.872;2022-08-19T03:03:58;28.30;94.30
46055;DHT22;31788;6.954;-71.872;2022-08-19T03:06:27;28.30;94.10
46055;DHT22;31788;6.954;-71.872;2022-08-19T03:08:54;28.30;93.90
46055;DHT22;31788;6.954;-71.872;2022-08-19T03:11:27;28.30;93.70
46055;DHT22;31788;6.954;-71.872;2022-08-19T03:13:55;28.30;93.50
46055;DHT22;31788;6.954;-71.872;2022-08-19T03:16:24;28.30;93.50
46055;DHT22;31788;6.954;-71.872;2022-08-19T03:18:52;28.30;93.30
46055;DHT22;31788;6.954;-71.872;2022-08-19T03:21:22;28.30;93.30
46055;DHT22;31788;6.954;-71.872;2022-08-19T03:23:57;28.30;93.00
46055;DHT22;31788;6.954;-71.872;2022-08-19T03:26:24;28.20;93.20
46055;DHT22;31788;6.954;-71.872;2022-08-19T03:28:51;28.20;93.00
46055;DHT22;31788;6.954;-71.872;2022-08-19T03:31:20;28.20;92.80
46055;DHT22;31788;6.954;-71.872;2022-08-19T03:33:51;28.20;92.50
46055;DHT22;31788;6.954;-71.872;2022-08-19T03:36:24;28.20;92.50
46055;DHT22;31788;6.954;-71.872;2022-08-19T03:39:00;28.20;92.50
46055;DHT22;31788;6.954;-71.872;2022-08-19T03:41:29;28.20;92.30
46055;DHT22;31788;6.954;-71.872;2022-08-19T03:43:57;28.20;92.30
46055;DHT22;31788;6.954;-71.872;2022-08-19T03:46:27;28.10;92.30
46055;DHT22;31788;6.954;-71.872;2022-08-19T03:48:56;28.10;92.30
46055;DHT22;31788;6.954;-71.872;2022-08-19T03:51:32;28.10;92.10
46055;DHT22;31788;6.954;-71.872;2022-08-19T03:54:04;28.20;92.10
46055;DHT22;31788;6.954;-71.872;2022-08-19T03:56:32;28.20;91.90
46055;DHT22;31788;6.954;-71.872;2022-08-19T03:58:59;28.20;91.60
46055;DHT22;31788;6.954;-71.872;2022-08-19T04:01:28;28.20;91.70
46055;DHT22;31788;6.954;-71.872;2022-08-19T04:03:59;28.30;91.30
46055;DHT22;31788;6.954;-71.872;2022-08-19T04:06:28;28.20;91.10
46055;DHT22;31788;6.954;-71.872;2022-08-19T04:08:57;28.20;91.20
46055;DHT22;31788;6.954;-71.872;2022-08-19T04:12:08;28.20;91.10
46055;DHT22;31788;6.954;-71.872;2022-08-19T04:14:18;28.20;91.10
46055;DHT22;31788;6.954;-71.872;2022-08-19T04:16:46;28.20;90.80
46055;DHT22;31788;6.954;-71.872;2022-08-19T04:19:13;28.20;90.80
46055;DHT22;31788;6.954;-71.872;2022-08-19T04:21:44;28.10;90.90
46055;DHT22;31788;6.954;-71.872;2022-08-19T04:24:13;28.10;90.90
46055;DHT22;31788;6.954;-71.872;2022-08-19T04:26:40;28.00;90.90
46055;DHT22;31788;6.954;-71.872;2022-08-19T04:29:12;28.10;90.90
46055;DHT22;31788;6.954;-71.872;2022-08-19T04:31:40;28.10;90.70
46055;DHT22;31788;6.954;-71.872;2022-08-19T04:34:09;28.10;90.80
46055;DHT22;31788;6.954;-71.872;2022-08-19T04:36:40;28.10;90.50
46055;DHT22;31788;6.954;-71.872;2022-08-19T04:39:15;28.00;90.40
46055;DHT22;31788;6.954;-71.872;2022-08-19T04:41:43;28.00;90.50
46055;DHT22;31788;6.954;-71.872;2022-08-19T04:44:28;28.00;90.30
46055;DHT22;31788;6.954;-71.872;2022-08-19T04:46:56;28.00;90.40
46055;DHT22;31788;6.954;-71.872;2022-08-19T04:49:24;28.00;90.20
46055;DHT22;31788;6.954;-71.872;2022-08-19T04:51:52;27.90;90.40
46055;DHT22;31788;6.954;-71.872;2022-08-19T04:54:24;27.90;90.40
46055;DHT22;31788;6.954;-71.872;2022-08-19T04:56:52;27.80;90.60
46055;DHT22;31788;6.954;-71.872;2022-08-19T04:59:20;27.80;90.70
46055;DHT22;31788;6.954;-71.872;2022-08-19T05:01:47;27.70;90.80
46055;DHT22;31788;6.954;-71.872;2022-08-19T05:04:19;27.70;90.60
46055;DHT22;31788;6.954;-71.872;2022-08-19T05:06:49;27.70;90.70
46055;DHT22;31788;6.954;-71.872;2022-08-19T05:09:17;27.60;90.80
46055;DHT22;31788;6.954;-71.872;2022-08-19T05:11:44;27.60;90.70
46055;DHT22;31788;6.954;-71.872;2022-08-19T05:14:11;27.60;90.60
46055;DHT22;31788;6.954;-71.872;2022-08-19T05:16:41;27.60;90.70
46055;DHT22;31788;6.954;-71.872;2022-08-19T05:19:08;27.60;90.60
46055;DHT22;31788;6.954;-71.872;2022-08-19T05:21:52;27.60;90.70
46055;DHT22;31788;6.954;-71.872;2022-08-19T05:24:38;27.60;90.60
46055;DHT22;31788;6.954;-71.872;2022-08-19T05:27:04;27.60;90.70
46055;DHT22;31788;6.954;-71.872;2022-08-19T05:29:32;27.60;90.90
46055;DHT22;31788;6.954;-71.872;2022-08-19T05:32:01;27.50;91.20
46055;DHT22;31788;6.954;-71.872;2022-08-19T05:34:28;27.50;91.40
46055;DHT22;31788;6.954;-71.872;2022-08-19T05:36:56;27.50;91.90
46055;DHT22;31788;6.954;-71.872;2022-08-19T05:39:26;27.50;91.60
46055;DHT22;31788;6.954;-71.872;2022-08-19T05:41:58;27.40;91.50
46055;DHT22;31788;6.954;-71.872;2022-08-19T05:44:27;27.40;91.80
46055;DHT22;31788;6.954;-71.872;2022-08-19T05:47:01;27.40;91.20
46055;DHT22;31788;6.954;-71.872;2022-08-19T05:49:29;27.50;91.00
46055;DHT22;31788;6.954;-71.872;2022-08-19T05:51:56;27.50;90.80
46055;DHT22;31788;6.954;-71.872;2022-08-19T05:54:23;27.50;90.80
46055;DHT22;31788;6.954;-71.872;2022-08-19T05:56:51;27.50;90.40
46055;DHT22;31788;6.954;-71.872;2022-08-19T05:59:19;27.50;90.60
46055;DHT22;31788;6.954;-71.872;2022-08-19T06:01:48;27.50;90.50
46055;DHT22;31788;6.954;-71.872;2022-08-19T06:04:20;27.50;90.50
46055;DHT22;31788;6.954;-71.872;2022-08-19T06:06:49;27.50;90.20
46055;DHT22;31788;6.954;-71.872;2022-08-19T06:09:18;27.50;89.90
46055;DHT22;31788;6.954;-71.872;2022-08-19T06:11:54;27.40;89.90
46055;DHT22;31788;6.954;-71.872;2022-08-19T06:14:25;27.50;90.10
46055;DHT22;31788;6.954;-71.872;2022-08-19T06:16:51;27.40;90.00
46055;DHT22;31788;6.954;-71.872;2022-08-19T06:19:21;27.30;89.60
46055;DHT22;31788;6.954;-71.872;2022-08-19T06:21:50;27.30;90.00
46055;DHT22;31788;6.954;-71.872;2022-08-19T06:24:22;27.30;90.10
46055;DHT22;31788;6.954;-71.872;2022-08-19T06:26:51;27.20;90.00
46055;DHT22;31788;6.954;-71.872;2022-08-19T06:29:20;27.30;90.20
46055;DHT22;31788;6.954;-71.872;2022-08-19T06:31:51;27.30;90.20
46055;DHT22;31788;6.954;-71.872;2022-08-19T06:34:19;27.20;90.40
46055;DHT22;31788;6.954;-71.872;2022-08-19T06:36:48;27.20;90.20
46055;DHT22;31788;6.954;-71.872;2022-08-19T06:39:20;27.20;90.80
46055;DHT22;31788;6.954;-71.872;2022-08-19T06:41:48;27.10;90.50
46055;DHT22;31788;6.954;-71.872;2022-08-19T06:44:16;27.10;90.50
46055;DHT22;31788;6.954;-71.872;2022-08-19T06:46:44;27.10;91.10
46055;DHT22;31788;6.954;-71.872;2022-08-19T06:49:11;27.00;90.80
46055;DHT22;31788;6.954;-71.872;2022-08-19T06:51:44;27.00;90.70
46055;DHT22;31788;6.954;-71.872;2022-08-19T06:54:12;26.90;91.00
46055;DHT22;31788;6.954;-71.872;2022-08-19T06:56:38;26.90;91.30
46055;DHT22;31788;6.954;-71.872;2022-08-19T06:59:09;26.70;91.20
46055;DHT22;31788;6.954;-71.872;2022-08-19T07:01:39;26.80;91.20
46055;DHT22;31788;6.954;-71.872;2022-08-19T07:04:07;26.80;91.30
46055;DHT22;31788;6.954;-71.872;2022-08-19T07:06:35;26.80;91.30
46055;DHT22;31788;6.954;-71.872;2022-08-19T07:09:05;26.80;91.40
46055;DHT22;31788;6.954;-71.872;2022-08-19T07:11:32;26.80;91.70
46055;DHT22;31788;6.954;-71.872;2022-08-19T07:14:00;26.80;91.60
46055;DHT22;31788;6.954;-71.872;2022-08-19T07:16:27;26.70;91.50
46055;DHT22;31788;6.954;-71.872;2022-08-19T07:18:54;26.70;91.60
46055;DHT22;31788;6.954;-71.872;2022-08-19T07:21:24;26.80;91.50
46055;DHT22;31788;6.954;-71.872;2022-08-19T07:23:58;26.90;91.40
46055;DHT22;31788;6.954;-71.872;2022-08-19T07:26:28;26.90;91.40
46055;DHT22;31788;6.954;-71.872;2022-08-19T07:28:57;26.90;91.50
46055;DHT22;31788;6.954;-71.872;2022-08-19T07:31:26;26.90;91.50
46055;DHT22;31788;6.954;-71.872;2022-08-19T07:33:54;26.90;91.50
46055;DHT22;31788;6.954;-71.872;2022-08-19T07:36:25;26.90;91.40
46055;DHT22;31788;6.954;-71.872;2022-08-19T07:38:59;26.90;91.60
46055;DHT22;31788;6.954;-71.872;2022-08-19T07:41:28;26.90;91.60
46055;DHT22;31788;6.954;-71.872;2022-08-19T07:44:00;26.90;91.60
46055;DHT22;31788;6.954;-71.872;2022-08-19T07:46:31;26.80;91.50
46055;DHT22;31788;6.954;-71.872;2022-08-19T07:48:58;26.80;91.80
46055;DHT22;31788;6.954;-71.872;2022-08-19T07:51:27;26.70;91.90
46055;DHT22;31788;6.954;-71.872;2022-08-19T07:53:54;26.60;92.50
46055;DHT22;31788;6.954;-71.872;2022-08-19T07:56:21;26.50;92.70
46055;DHT22;31788;6.954;-71.872;2022-08-19T07:58:50;26.40;93.00
46055;DHT22;31788;6.954;-71.872;2022-08-19T08:01:23;26.30;92.90
46055;DHT22;31788;6.954;-71.872;2022-08-19T08:03:51;26.30;93.50
46055;DHT22;31788;6.954;-71.872;2022-08-19T08:06:37;26.20;93.50
46055;DHT22;31788;6.954;-71.872;2022-08-19T08:09:33;26.20;93.00
46055;DHT22;31788;6.954;-71.872;2022-08-19T08:12:07;26.20;93.10
46055;DHT22;31788;6.954;-71.872;2022-08-19T08:14:40;26.20;92.60
46055;DHT22;31788;6.954;-71.872;2022-08-19T08:17:08;26.40;92.20
46055;DHT22;31788;6.954;-71.872;2022-08-19T08:19:35;26.30;92.20
46055;DHT22;31788;6.954;-71.872;2022-08-19T08:22:02;26.40;91.70
46055;DHT22;31788;6.954;-71.872;2022-08-19T08:24:30;26.40;91.80
46055;DHT22;31788;6.954;-71.872;2022-08-19T08:26:58;26.40;91.60
46055;DHT22;31788;6.954;-71.872;2022-08-19T08:29:27;26.50;91.00
46055;DHT22;31788;6.954;-71.872;2022-08-19T08:31:54;26.60;90.80
46055;DHT22;31788;6.954;-71.872;2022-08-19T08:34:22;26.60;90.50
46055;DHT22;31788;6.954;-71.872;2022-08-19T08:36:49;26.60;90.60
46055;DHT22;31788;6.954;-71.872;2022-08-19T08:39:19;26.60;90.20
46055;DHT22;31788;6.954;-71.872;2022-08-19T08:42:11;26.60;90.00
46055;DHT22;31788;6.954;-71.872;2022-08-19T08:45:00;26.60;90.00
46055;DHT22;31788;6.954;-71.872;2022-08-19T08:47:34;26.60;89.50
46055;DHT22;31788;6.954;-71.872;2022-08-19T08:50:18;26.70;89.90
46055;DHT22;31788;6.954;-71.872;2022-08-19T08:52:48;26.70;89.60
46055;DHT22;31788;6.954;-71.872;2022-08-19T08:55:20;26.60;89.10
46055;DHT22;31788;6.954;-71.872;2022-08-19T09:00:27;26.60;89.10
46055;DHT22;31788;6.954;-71.872;2022-08-19T09:02:56;26.60;88.70
46055;DHT22;31788;6.954;-71.872;2022-08-19T09:05:32;26.60;88.50
46055;DHT22;31788;6.954;-71.872;2022-08-19T09:08:11;26.60;88.20
46055;DHT22;31788;6.954;-71.872;2022-08-19T09:10:54;26.50;88.60
46055;DHT22;31788;6.954;-71.872;2022-08-19T09:15:58;26.40;88.90
46055;DHT22;31788;6.954;-71.872;2022-08-19T09:18:39;26.40;89.20
46055;DHT22;31788;6.954;-71.872;2022-08-19T09:21:07;26.30;89.40
46055;DHT22;31788;6.954;-71.872;2022-08-19T09:23:36;26.30;88.60
46055;DHT22;31788;6.954;-71.872;2022-08-19T09:26:08;26.40;88.50
46055;DHT22;31788;6.954;-71.872;2022-08-19T09:28:35;26.30;88.70
46055;DHT22;31788;6.954;-71.872;2022-08-19T09:31:02;26.40;88.70
46055;DHT22;31788;6.954;-71.872;2022-08-19T09:33:29;26.40;88.00
46055;DHT22;31788;6.954;-71.872;2022-08-19T09:36:11;26.40;87.80
46055;DHT22;31788;6.954;-71.872;2022-08-19T09:38:38;26.40;87.60
46055;DHT22;31788;6.954;-71.872;2022-08-19T09:41:16;26.50;87.10
46055;DHT22;31788;6.954;-71.872;2022-08-19T09:43:45;26.50;87.50
46055;DHT22;31788;6.954;-71.872;2022-08-19T09:46:12;26.50;87.90
46055;DHT22;31788;6.954;-71.872;2022-08-19T09:48:40;26.50;87.30
46055;DHT22;31788;6.954;-71.872;2022-08-19T09:51:12;26.50;87.70
46055;DHT22;31788;6.954;-71.872;2022-08-19T09:53:42;26.50;87.00
46055;DHT22;31788;6.954;-71.872;2022-08-19T09:56:10;26.50;87.20
46055;DHT22;31788;6.954;-71.872;2022-08-19T09:58:37;26.40;87.30
46055;DHT22;31788;6.954;-71.872;2022-08-19T10:01:05;26.50;86.70
46055;DHT22;31788;6.954;-71.872;2022-08-19T10:03:33;26.50;86.20
46055;DHT22;31788;6.954;-71.872;2022-08-19T10:06:04;26.50;86.20
46055;DHT22;31788;6.954;-71.872;2022-08-19T10:08:34;26.50;86.30
46055;DHT22;31788;6.954;-71.872;2022-08-19T10:11:01;26.50;86.70
46055;DHT22;31788;6.954;-71.872;2022-08-19T10:13:29;26.50;85.70
46055;DHT22;31788;6.954;-71.872;2022-08-19T10:16:14;26.50;86.00
46055;DHT22;31788;6.954;-71.872;2022-08-19T10:18:42;26.50;85.80
46055;DHT22;31788;6.954;-71.872;2022-08-19T10:23:37;26.50;86.10
46055;DHT22;31788;6.954;-71.872;2022-08-19T10:26:07;26.50;86.10
46055;DHT22;31788;6.954;-71.872;2022-08-19T10:28:35;26.40;86.50
46055;DHT22;31788;6.954;-71.872;2022-08-19T10:31:07;26.30;86.10
46055;DHT22;31788;6.954;-71.872;2022-08-19T10:33:34;26.20;85.80
46055;DHT22;31788;6.954;-71.872;2022-08-19T10:36:08;26.20;86.70
46055;DHT22;31788;6.954;-71.872;2022-08-19T10:38:36;26.20;86.50
46055;DHT22;31788;6.954;-71.872;2022-08-19T10:41:16;26.20;87.50
46055;DHT22;31788;6.954;-71.872;2022-08-19T10:43:44;26.10;87.30
46055;DHT22;31788;6.954;-71.872;2022-08-19T10:46:15;26.20;86.90
46055;DHT22;31788;6.954;-71.872;2022-08-19T10:48:43;26.10;86.90
46055;DHT22;31788;6.954;-71.872;2022-08-19T10:51:10;26.10;87.40
46055;DHT22;31788;6.954;-71.872;2022-08-19T10:53:56;26.10;87.50
46055;DHT22;31788;6.954;-71.872;2022-08-19T10:56:22;26.10;87.90
46055;DHT22;31788;6.954;-71.872;2022-08-19T10:59:08;26.00;88.50
46055;DHT22;31788;6.954;-71.872;2022-08-19T11:01:34;26.00;89.10
46055;DHT22;31788;6.954;-71.872;2022-08-19T11:04:03;25.90;89.40
46055;DHT22;31788;6.954;-71.872;2022-08-19T11:06:32;25.90;89.40
46055;DHT22;31788;6.954;-71.872;2022-08-19T11:08:59;26.00;89.20
46055;DHT22;31788;6.954;-71.872;2022-08-19T11:11:27;26.00;90.10
46055;DHT22;31788;6.954;-71.872;2022-08-19T11:13:54;25.90;90.10
46055;DHT22;31788;6.954;-71.872;2022-08-19T11:16:23;25.90;90.10
46055;DHT22;31788;6.954;-71.872;2022-08-19T11:18:54;25.80;90.30
46055;DHT22;31788;6.954;-71.872;2022-08-19T11:21:36;25.90;90.60
46055;DHT22;31788;6.954;-71.872;2022-08-19T11:24:06;26.00;90.60
46055;DHT22;31788;6.954;-71.872;2022-08-19T11:26:34;26.00;90.20
46055;DHT22;31788;6.954;-71.872;2022-08-19T11:29:02;26.00;90.80
46055;DHT22;31788;6.954;-71.872;2022-08-19T11:31:31;26.20;90.40
46055;DHT22;31788;6.954;-71.872;2022-08-19T11:34:00;26.20;90.00
46055;DHT22;31788;6.954;-71.872;2022-08-19T11:36:27;26.40;89.90
46055;DHT22;31788;6.954;-71.872;2022-08-19T11:38:54;26.50;88.50
46055;DHT22;31788;6.954;-71.872;2022-08-19T11:41:22;26.60;88.90
46055;DHT22;31788;6.954;-71.872;2022-08-19T11:43:50;26.70;88.70
46055;DHT22;31788;6.954;-71.872;2022-08-19T11:46:19;26.90;87.90
46055;DHT22;31788;6.954;-71.872;2022-08-19T11:48:46;27.00;86.60
46055;DHT22;31788;6.954;-71.872;2022-08-19T11:51:20;27.20;86.70
46055;DHT22;31788;6.954;-71.872;2022-08-19T11:53:48;27.30;85.90
46055;DHT22;31788;6.954;-71.872;2022-08-19T11:56:17;27.50;85.60
46055;DHT22;31788;6.954;-71.872;2022-08-19T11:58:43;27.60;85.40
46055;DHT22;31788;6.954;-71.872;2022-08-19T12:01:16;27.70;84.80
46055;DHT22;31788;6.954;-71.872;2022-08-19T12:03:48;28.00;84.40
46055;DHT22;31788;6.954;-71.872;2022-08-19T12:06:18;28.20;83.70
46055;DHT22;31788;6.954;-71.872;2022-08-19T12:08:45;28.30;82.80
46055;DHT22;31788;6.954;-71.872;2022-08-19T12:11:13;28.50;82.50
46055;DHT22;31788;6.954;-71.872;2022-08-19T12:13:41;28.90;81.70
46055;DHT22;31788;6.954;-71.872;2022-08-19T12:16:13;29.10;81.20
46055;DHT22;31788;6.954;-71.872;2022-08-19T12:18:43;29.10;81.20
46055;DHT22;31788;6.954;-71.872;2022-08-19T12:21:13;29.10;81.30
46055;DHT22;31788;6.954;-71.872;2022-08-19T12:23:41;29.10;81.40
46055;DHT22;31788;6.954;-71.872;2022-08-19T12:26:10;29.20;81.50
46055;DHT22;31788;6.954;-71.872;2022-08-19T12:28:36;29.20;81.60
46055;DHT22;31788;6.954;-71.872;2022-08-19T12:31:05;29.20;81.00
46055;DHT22;31788;6.954;-71.872;2022-08-19T12:33:31;29.40;81.00
46055;DHT22;31788;6.954;-71.872;2022-08-19T12:36:06;29.50;80.30
46055;DHT22;31788;6.954;-71.872;2022-08-19T12:38:33;29.70;80.30
46055;DHT22;31788;6.954;-71.872;2022-08-19T12:41:04;29.80;80.10
46055;DHT22;31788;6.954;-71.872;2022-08-19T12:43:34;30.00;79.50
46055;DHT22;31788;6.954;-71.872;2022-08-19T12:46:01;30.10;78.80
46055;DHT22;31788;6.954;-71.872;2022-08-19T12:48:30;30.30;78.70
46055;DHT22;31788;6.954;-71.872;2022-08-19T12:50:57;30.40;78.50
46055;DHT22;31788;6.954;-71.872;2022-08-19T12:53:23;30.70;77.90
46055;DHT22;31788;6.954;-71.872;2022-08-19T12:55:57;31.20;76.70
46055;DHT22;31788;6.954;-71.872;2022-08-19T12:58:26;32.00;75.10
46055;DHT22;31788;6.954;-71.872;2022-08-19T13:00:54;32.90;73.10
46055;DHT22;31788;6.954;-71.872;2022-08-19T13:03:20;33.70;71.20
46055;DHT22;31788;6.954;-71.872;2022-08-19T13:05:55;33.20;70.50
46055;DHT22;31788;6.954;-71.872;2022-08-19T13:08:22;32.30;72.60
46055;DHT22;31788;6.954;-71.872;2022-08-19T13:10:49;31.60;74.30
46055;DHT22;31788;6.954;-71.872;2022-08-19T13:13:16;31.10;75.60
46055;DHT22;31788;6.954;-71.872;2022-08-19T13:15:43;30.80;76.60
46055;DHT22;31788;6.954;-71.872;2022-08-19T13:18:12;30.60;77.20
46055;DHT22;31788;6.954;-71.872;2022-08-19T13:20:39;30.40;78.10
46055;DHT22;31788;6.954;-71.872;2022-08-19T13:23:09;30.30;78.30
46055;DHT22;31788;6.954;-71.872;2022-08-19T13:25:36;30.20;78.80
46055;DHT22;31788;6.954;-71.872;2022-08-19T13:28:03;30.10;79.20
46055;DHT22;31788;6.954;-71.872;2022-08-19T13:30:32;30.10;79.60
46055;DHT22;31788;6.954;-71.872;2022-08-19T13:33:18;30.00;79.40
46055;DHT22;31788;6.954;-71.872;2022-08-19T13:35:50;30.00;79.30
46055;DHT22;31788;6.954;-71.872;2022-08-19T13:38:22;30.00;79.10
46055;DHT22;31788;6.954;-71.872;2022-08-19T13:40:52;30.00;79.50
46055;DHT22;31788;6.954;-71.872;2022-08-19T13:43:21;29.90;79.10
46055;DHT22;31788;6.954;-71.872;2022-08-19T13:45:53;29.90;79.10
46055;DHT22;31788;6.954;-71.872;2022-08-19T13:48:21;29.90;79.20
46055;DHT22;31788;6.954;-71.872;2022-08-19T13:50:48;29.90;79.40
46055;DHT22;31788;6.954;-71.872;2022-08-19T13:53:15;29.90;79.50
46055;DHT22;31788;6.954;-71.872;2022-08-19T13:55:43;29.90;79.80
46055;DHT22;31788;6.954;-71.872;2022-08-19T13:58:11;29.90;79.60
46055;DHT22;31788;6.954;-71.872;2022-08-19T14:00:41;29.90;79.90
46055;DHT22;31788;6.954;-71.872;2022-08-19T14:03:08;29.90;80.30
46055;DHT22;31788;6.954;-71.872;2022-08-19T14:05:36;29.80;80.10
46055;DHT22;31788;6.954;-71.872;2022-08-19T14:08:02;29.90;80.10
46055;DHT22;31788;6.954;-71.872;2022-08-19T14:10:29;29.90;80.30
46055;DHT22;31788;6.954;-71.872;2022-08-19T14:13:00;29.80;80.10
46055;DHT22;31788;6.954;-71.872;2022-08-19T14:15:30;29.90;80.00
46055;DHT22;31788;6.954;-71.872;2022-08-19T14:17:57;29.80;80.00
46055;DHT22;31788;6.954;-71.872;2022-08-19T14:20:24;29.90;80.20
46055;DHT22;31788;6.954;-71.872;2022-08-19T14:22:51;29.90;80.50
46055;DHT22;31788;6.954;-71.872;2022-08-19T14:25:23;29.80;80.60
46055;DHT22;31788;6.954;-71.872;2022-08-19T14:27:50;29.90;80.70
46055;DHT22;31788;6.954;-71.872;2022-08-19T14:30:20;29.90;80.70
46055;DHT22;31788;6.954;-71.872;2022-08-19T14:32:47;29.90;80.70
46055;DHT22;31788;6.954;-71.872;2022-08-19T14:35:15;29.90;81.00
46055;DHT22;31788;6.954;-71.872;2022-08-19T14:37:42;29.90;81.10
46055;DHT22;31788;6.954;-71.872;2022-08-19T14:40:11;29.90;81.50
46055;DHT22;31788;6.954;-71.872;2022-08-19T14:42:38;30.00;82.10
46055;DHT22;31788;6.954;-71.872;2022-08-19T14:45:05;30.00;82.10
46055;DHT22;31788;6.954;-71.872;2022-08-19T14:47:31;30.10;82.30
46055;DHT22;31788;6.954;-71.872;2022-08-19T14:49:58;30.10;82.90
46055;DHT22;31788;6.954;-71.872;2022-08-19T14:52:27;30.10;83.00
46055;DHT22;31788;6.954;-71.872;2022-08-19T14:54:54;30.20;83.60
46055;DHT22;31788;6.954;-71.872;2022-08-19T14:57:20;30.20;83.20
46055;DHT22;31788;6.954;-71.872;2022-08-19T14:59:47;30.30;83.60
46055;DHT22;31788;6.954;-71.872;2022-08-19T15:02:13;30.30;83.70
46055;DHT22;31788;6.954;-71.872;2022-08-19T15:04:40;30.40;84.00
46055;DHT22;31788;6.954;-71.872;2022-08-19T15:07:07;30.40;84.80
46055;DHT22;31788;6.954;-71.872;2022-08-19T15:09:34;30.40;84.60
46055;DHT22;31788;6.954;-71.872;2022-08-19T15:12:01;30.50;84.80
46055;DHT22;31788;6.954;-71.872;2022-08-19T15:14:29;30.50;85.10
46055;DHT22;31788;6.954;-71.872;2022-08-19T15:17:03;30.50;85.60
46055;DHT22;31788;6.954;-71.872;2022-08-19T15:19:31;30.50;85.60
46055;DHT22;31788;6.954;-71.872;2022-08-19T15:21:58;30.60;85.60
46055;DHT22;31788;6.954;-71.872;2022-08-19T15:24:25;30.60;85.60
46055;DHT22;31788;6.954;-71.872;2022-08-19T15:26:53;30.60;86.80
46055;DHT22;31788;6.954;-71.872;2022-08-19T15:29:23;30.70;87.10
46055;DHT22;31788;6.954;-71.872;2022-08-19T15:31:51;30.80;87.10
46055;DHT22;31788;6.954;-71.872;2022-08-19T15:34:23;31.00;87.50
46055;DHT22;31788;6.954;-71.872;2022-08-19T15:36:51;31.10;85.10
46055;DHT22;31788;6.954;-71.872;2022-08-19T15:39:19;31.20;86.00
46055;DHT22;31788;6.954;-71.872;2022-08-19T15:41:47;31.20;86.50
46055;DHT22;31788;6.954;-71.872;2022-08-19T15:44:15;31.30;86.90
46055;DHT22;31788;6.954;-71.872;2022-08-19T15:46:45;31.30;86.30